Time;durP1;ratioP1;P1;durP2;ratioP2;P2;SDS_P1;SDS_P2;PMS_P1;PMS_P2;Temp;Humidity;BMP_temperature;BMP_pressure;BME280_temperature;BME280_humidity;BME280_pressure;Samples;Min_cycle;Max_cycle;Signal;HPM_P1;HPM_P2
2022/10/25 00:00:10;;;;;;;;;;;11.60;99.40;;;;;;5059259;28;19920;-75
2022/10/25 00:02:35;;;;;;;;;;;11.60;99.30;;;;;;5058216;28;20431;-76
2022/10/25 00:05:01;;;;;;;;;;;11.60;99.40;;;;;;5070031;28;19991;-75
2022/10/25 00:07:27;;;;;;;;;;;11.60;99.30;;;;;;5065833;28;20007;-76
2022/10/25 00:09:52;;;;;;;;;;;11.70;99.30;;;;;;5065783;28;19924;-75
2022/10/25 00:12:17;;;;;;;;;;;11.60;99.20;;;;;;5058398;28;20474;-76
2022/10/25 00:14:43;;;;;;;;;;;11.70;99.30;;;;;;5065634;28;19908;-76
2022/10/25 00:17:09;;;;;;;;;;;11.80;99.30;;;;;;5057063;28;19913;-75
2022/10/25 00:19:35;;;;;;;;;;;11.80;99.30;;;;;;5058879;28;19912;-75
2022/10/25 00:22:00;;;;;;;;;;;11.80;99.30;;;;;;5067442;28;20261;-75
2022/10/25 00:24:26;;;;;;;;;;;11.90;99.20;;;;;;5063248;28;19913;-75
2022/10/25 00:26:51;;;;;;;;;;;11.90;99.10;;;;;;5066396;28;19917;-75
2022/10/25 00:29:17;;;;;;;;;;;11.90;99.00;;;;;;5066047;28;19916;-76
2022/10/25 00:31:45;;;;;;;;;;;11.90;99.00;;;;;;5058883;28;19916;-75
2022/10/25 00:34:11;;;;;;;;;;;11.80;98.90;;;;;;5058188;28;19925;-75
2022/10/25 00:36:37;;;;;;;;;;;11.90;98.90;;;;;;5058417;28;19994;-75
2022/10/25 00:39:02;;;;;;;;;;;11.80;98.80;;;;;;5058039;28;19904;-75
2022/10/25 00:41:29;;;;;;;;;;;11.80;98.90;;;;;;5070698;28;20403;-75
2022/10/25 00:43:56;;;;;;;;;;;11.90;98.90;;;;;;5066137;28;19913;-75
2022/10/25 00:46:28;;;;;;;;;;;11.90;98.80;;;;;;5061670;28;19919;-75
2022/10/25 00:49:01;;;;;;;;;;;12.00;98.80;;;;;;5057151;28;19905;-75
2022/10/25 00:51:29;;;;;;;;;;;12.00;98.80;;;;;;5071219;28;19912;-76
2022/10/25 00:53:55;;;;;;;;;;;12.00;98.70;;;;;;5064997;28;19963;-75
2022/10/25 00:56:22;;;;;;;;;;;12.00;98.70;;;;;;5059760;28;20571;-75
2022/10/25 00:58:50;;;;;;;;;;;12.10;98.70;;;;;;5064159;28;19909;-77
2022/10/25 01:01:16;;;;;;;;;;;12.10;98.60;;;;;;5057458;28;19972;-76
2022/10/25 01:03:42;;;;;;;;;;;12.10;98.50;;;;;;5057585;28;19909;-75
2022/10/25 01:06:11;;;;;;;;;;;12.10;98.40;;;;;;5063941;28;19905;-75
2022/10/25 01:08:37;;;;;;;;;;;12.10;98.40;;;;;;5063401;28;19905;-75
2022/10/25 01:11:03;;;;;;;;;;;12.10;98.30;;;;;;5057427;28;20030;-76
2022/10/25 01:13:28;;;;;;;;;;;12.20;98.30;;;;;;5060434;28;20357;-75
2022/10/25 01:16:02;;;;;;;;;;;12.20;98.30;;;;;;5056144;28;19908;-75
2022/10/25 01:18:47;;;;;;;;;;;12.30;98.20;;;;;;5039380;28;19915;-75
2022/10/25 01:21:21;;;;;;;;;;;12.20;98.10;;;;;;5051005;28;19991;-76
2022/10/25 01:24:05;;;;;;;;;;;12.30;98.10;;;;;;5072724;28;19933;-76
2022/10/25 01:26:44;;;;;;;;;;;12.30;98.00;;;;;;5062490;28;19909;-74
2022/10/25 01:29:27;;;;;;;;;;;12.30;98.00;;;;;;5067926;28;19964;-74
2022/10/25 01:32:05;;;;;;;;;;;12.30;97.90;;;;;;5053029;28;19976;-76
2022/10/25 01:34:54;;;;;;;;;;;12.30;97.90;;;;;;5061972;28;20476;-76
2022/10/25 01:37:33;;;;;;;;;;;12.20;97.90;;;;;;5051110;28;20293;-78
2022/10/25 01:40:14;;;;;;;;;;;12.20;97.90;;;;;;5069490;28;20348;-74
2022/10/25 01:42:49;;;;;;;;;;;12.20;98.10;;;;;;5061658;28;20282;-74
2022/10/25 01:45:20;;;;;;;;;;;12.20;98.20;;;;;;5056152;28;19955;-75
2022/10/25 01:47:54;;;;;;;;;;;12.30;98.20;;;;;;5064657;28;19916;-75
2022/10/25 01:50:28;;;;;;;;;;;12.30;98.10;;;;;;5059684;28;19932;-76
2022/10/25 01:52:53;;;;;;;;;;;12.30;98.20;;;;;;5060986;28;19908;-75
2022/10/25 01:55:21;;;;;;;;;;;12.30;98.20;;;;;;5067387;28;19912;-75
2022/10/25 01:58:13;;;;;;;;;;;12.30;98.20;;;;;;5059278;28;19908;-78
2022/10/25 02:00:44;;;;;;;;;;;12.40;98.20;;;;;;5032490;28;20264;-75
2022/10/25 02:03:48;;;;;;;;;;;12.40;98.20;;;;;;5061309;28;19913;-75
2022/10/25 02:06:23;;;;;;;;;;;12.40;98.10;;;;;;4975264;28;19910;-75
2022/10/25 02:09:09;;;;;;;;;;;12.40;98.10;;;;;;4978944;28;19949;-76
2022/10/25 02:11:34;;;;;;;;;;;12.50;98.10;;;;;;5032552;28;19912;-74
2022/10/25 02:14:11;;;;;;;;;;;12.60;98.10;;;;;;5060900;28;20249;-75
2022/10/25 02:16:39;;;;;;;;;;;12.50;98.00;;;;;;5068745;28;20022;-76
2022/10/25 02:19:05;;;;;;;;;;;12.60;98.00;;;;;;5061302;28;19908;-74
2022/10/25 02:21:32;;;;;;;;;;;12.60;97.90;;;;;;5070234;28;19909;-76
2022/10/25 02:23:58;;;;;;;;;;;12.60;97.90;;;;;;5055724;28;20361;-75
2022/10/25 02:26:25;;;;;;;;;;;12.60;97.90;;;;;;5052739;28;20364;-77
2022/10/25 02:28:50;;;;;;;;;;;12.60;97.90;;;;;;5056392;28;19908;-75
2022/10/25 02:31:18;;;;;;;;;;;12.70;97.80;;;;;;5069379;28;19943;-76
2022/10/25 02:33:44;;;;;;;;;;;12.70;97.70;;;;;;5052288;28;19916;-75
2022/10/25 02:36:09;;;;;;;;;;;12.70;97.70;;;;;;5069682;28;19915;-75
2022/10/25 02:38:35;;;;;;;;;;;12.80;97.70;;;;;;5073685;28;20268;-75
2022/10/25 02:41:01;;;;;;;;;;;12.70;97.60;;;;;;5068956;28;20013;-76
2022/10/25 02:43:27;;;;;;;;;;;12.80;97.50;;;;;;5054808;28;20333;-75
2022/10/25 02:45:52;;;;;;;;;;;12.80;97.50;;;;;;5059657;28;19999;-75
2022/10/25 02:48:18;;;;;;;;;;;12.70;97.50;;;;;;5060410;28;19904;-75
2022/10/25 02:50:43;;;;;;;;;;;12.70;97.50;;;;;;5062130;28;19916;-75
2022/10/25 02:53:08;;;;;;;;;;;12.80;97.40;;;;;;5060087;28;19979;-75
2022/10/25 02:55:34;;;;;;;;;;;12.80;97.40;;;;;;5064264;28;19908;-75
2022/10/25 02:57:59;;;;;;;;;;;12.80;97.30;;;;;;5059989;28;19916;-75
2022/10/25 03:00:25;;;;;;;;;;;12.80;97.10;;;;;;5054120;28;19966;-75
2022/10/25 03:02:50;;;;;;;;;;;12.80;97.00;;;;;;5054263;28;20327;-75
2022/10/25 03:05:15;;;;;;;;;;;12.80;97.00;;;;;;5053344;28;19908;-75
2022/10/25 03:07:41;;;;;;;;;;;12.80;97.00;;;;;;5068357;28;19915;-76
2022/10/25 03:10:06;;;;;;;;;;;12.80;96.90;;;;;;5072467;28;20291;-77
2022/10/25 03:12:32;;;;;;;;;;;12.80;96.90;;;;;;5051721;28;19912;-76
2022/10/25 03:14:57;;;;;;;;;;;12.80;96.80;;;;;;5057120;28;19909;-75
2022/10/25 03:17:23;;;;;;;;;;;12.80;96.80;;;;;;5065403;28;19905;-75
2022/10/25 03:19:48;;;;;;;;;;;12.80;96.80;;;;;;5057871;28;19981;-75
2022/10/25 03:22:13;;;;;;;;;;;12.80;96.80;;;;;;5065788;28;19973;-76
2022/10/25 03:24:39;;;;;;;;;;;12.80;96.90;;;;;;5054730;28;19913;-75
2022/10/25 03:27:04;;;;;;;;;;;12.80;96.90;;;;;;5052606;28;19904;-77
2022/10/25 03:29:29;;;;;;;;;;;12.80;96.80;;;;;;5059775;28;19931;-75
2022/10/25 03:31:55;;;;;;;;;;;12.90;96.70;;;;;;5051634;28;19943;-75
2022/10/25 03:34:20;;;;;;;;;;;12.90;96.70;;;;;;5055662;28;19915;-75
2022/10/25 03:36:46;;;;;;;;;;;12.90;96.60;;;;;;5062007;28;19931;-75
2022/10/25 03:39:11;;;;;;;;;;;12.80;96.60;;;;;;5052764;28;19978;-76
2022/10/25 03:41:37;;;;;;;;;;;12.80;96.40;;;;;;5068313;28;19904;-75
2022/10/25 03:44:02;;;;;;;;;;;12.80;96.20;;;;;;5072311;28;19912;-76
2022/10/25 03:46:27;;;;;;;;;;;12.90;96.00;;;;;;5069573;28;20360;-76
2022/10/25 03:48:53;;;;;;;;;;;12.90;95.70;;;;;;5052668;28;19912;-74
2022/10/25 03:51:18;;;;;;;;;;;12.90;95.60;;;;;;5060919;28;19982;-75
2022/10/25 03:53:44;;;;;;;;;;;12.90;95.50;;;;;;5069282;28;19915;-75
2022/10/25 03:56:09;;;;;;;;;;;12.80;95.60;;;;;;5049613;28;19917;-75
2022/10/25 03:58:34;;;;;;;;;;;12.80;95.70;;;;;;5061433;28;19905;-75
2022/10/25 04:01:00;;;;;;;;;;;12.90;95.70;;;;;;5068007;28;19960;-76
2022/10/25 04:03:25;;;;;;;;;;;12.90;95.80;;;;;;5056785;28;19919;-75
2022/10/25 04:05:51;;;;;;;;;;;12.80;95.90;;;;;;5057405;28;19912;-75
2022/10/25 04:08:16;;;;;;;;;;;12.80;95.90;;;;;;5063965;28;19908;-74
2022/10/25 04:10:41;;;;;;;;;;;12.80;96.00;;;;;;5063032;28;20353;-76
2022/10/25 04:13:07;;;;;;;;;;;12.80;96.00;;;;;;5054852;28;20053;-75
2022/10/25 04:15:32;;;;;;;;;;;12.80;96.20;;;;;;5054104;28;19952;-76
2022/10/25 04:17:58;;;;;;;;;;;12.70;96.20;;;;;;5064111;28;19908;-76
2022/10/25 04:20:23;;;;;;;;;;;12.60;96.40;;;;;;5062911;28;19914;-75
2022/10/25 04:22:52;;;;;;;;;;;12.60;96.60;;;;;;5069121;28;20399;-76
2022/10/25 04:25:18;;;;;;;;;;;12.50;96.70;;;;;;5052942;28;19905;-75
2022/10/25 04:27:43;;;;;;;;;;;12.50;96.70;;;;;;5057332;28;19908;-75
2022/10/25 04:30:09;;;;;;;;;;;12.40;96.80;;;;;;5064764;28;20477;-70
2022/10/25 04:32:34;;;;;;;;;;;12.50;96.90;;;;;;5065880;28;19975;-70
2022/10/25 04:34:59;;;;;;;;;;;12.50;96.90;;;;;;5055602;28;19944;-70
2022/10/25 04:37:25;;;;;;;;;;;12.50;96.80;;;;;;5053470;28;19992;-70
2022/10/25 04:39:50;;;;;;;;;;;12.50;96.80;;;;;;5055072;28;19912;-71
2022/10/25 04:42:18;;;;;;;;;;;12.60;96.90;;;;;;5059499;28;19908;-70
2022/10/25 04:44:43;;;;;;;;;;;12.60;96.80;;;;;;5061825;28;19915;-69
2022/10/25 04:47:09;;;;;;;;;;;12.60;96.90;;;;;;5053680;28;20284;-70
2022/10/25 04:49:34;;;;;;;;;;;12.60;96.80;;;;;;5055055;28;19935;-69
2022/10/25 04:51:59;;;;;;;;;;;12.60;96.80;;;;;;5068694;28;19912;-70
2022/10/25 04:54:25;;;;;;;;;;;12.60;96.80;;;;;;5058480;28;20356;-69
2022/10/25 04:56:50;;;;;;;;;;;12.60;96.80;;;;;;5063564;28;20346;-70
2022/10/25 04:59:16;;;;;;;;;;;12.60;96.80;;;;;;5058042;28;19909;-69
2022/10/25 05:01:41;;;;;;;;;;;12.60;96.60;;;;;;5054317;28;19916;-69
2022/10/25 05:04:06;;;;;;;;;;;12.60;96.60;;;;;;5043772;28;19931;-69
2022/10/25 05:06:32;;;;;;;;;;;12.60;96.50;;;;;;5061187;28;19912;-69
2022/10/25 05:08:57;;;;;;;;;;;12.70;96.50;;;;;;5060050;28;19916;-69
2022/10/25 05:11:23;;;;;;;;;;;12.70;96.40;;;;;;5057767;28;20361;-70
2022/10/25 05:13:49;;;;;;;;;;;12.60;96.40;;;;;;5068512;28;19908;-69
2022/10/25 05:16:16;;;;;;;;;;;12.60;96.40;;;;;;5062719;28;20574;-70
2022/10/25 05:18:44;;;;;;;;;;;12.50;96.50;;;;;;5054638;28;19919;-70
2022/10/25 05:21:10;;;;;;;;;;;12.60;96.50;;;;;;5063861;28;19992;-70
2022/10/25 05:23:35;;;;;;;;;;;12.50;96.50;;;;;;5064280;28;19955;-69
2022/10/25 05:26:14;;;;;;;;;;;12.50;96.50;;;;;;5063817;28;20007;-69
2022/10/25 05:28:41;;;;;;;;;;;12.50;96.60;;;;;;5071263;28;19916;-69
2022/10/25 05:31:07;;;;;;;;;;;12.50;96.70;;;;;;5053952;28;20391;-69
2022/10/25 05:33:33;;;;;;;;;;;12.60;96.60;;;;;;5052632;28;20360;-69
2022/10/25 05:35:59;;;;;;;;;;;12.60;96.70;;;;;;5055969;28;19905;-70
2022/10/25 05:38:24;;;;;;;;;;;12.60;96.60;;;;;;5057243;28;20428;-69
2022/10/25 05:40:54;;;;;;;;;;;12.60;96.60;;;;;;5064119;28;20038;-70
2022/10/25 05:43:19;;;;;;;;;;;12.60;96.60;;;;;;5056673;28;20275;-69
2022/10/25 05:45:45;;;;;;;;;;;12.70;96.80;;;;;;5055201;28;19909;-69
2022/10/25 05:48:10;;;;;;;;;;;12.60;96.90;;;;;;5050990;28;19999;-69
2022/10/25 05:50:36;;;;;;;;;;;12.60;97.20;;;;;;5058100;28;20287;-70
2022/10/25 05:53:01;;;;;;;;;;;12.60;97.50;;;;;;5065824;28;19923;-70
2022/10/25 05:55:26;;;;;;;;;;;12.60;97.70;;;;;;5073937;28;19904;-70
2022/10/25 05:57:52;;;;;;;;;;;12.50;98.10;;;;;;5065740;28;20348;-70
2022/10/25 06:00:17;;;;;;;;;;;12.50;98.30;;;;;;5061328;28;19909;-69
2022/10/25 06:02:43;;;;;;;;;;;12.40;98.40;;;;;;5063801;28;19966;-70
2022/10/25 06:05:08;;;;;;;;;;;12.40;98.70;;;;;;5055897;28;19908;-71
2022/10/25 06:07:33;;;;;;;;;;;12.40;98.90;;;;;;5062510;28;19904;-70
2022/10/25 06:09:59;;;;;;;;;;;12.40;99.00;;;;;;5064094;28;19998;-72
2022/10/25 06:12:24;;;;;;;;;;;12.30;99.00;;;;;;5051219;28;20356;-69
2022/10/25 06:14:50;;;;;;;;;;;12.30;99.20;;;;;;5063019;28;19911;-70
2022/10/25 06:17:15;;;;;;;;;;;12.30;99.20;;;;;;5066562;28;20253;-72
2022/10/25 06:19:40;;;;;;;;;;;12.30;99.40;;;;;;5056335;28;20519;-70
2022/10/25 06:22:06;;;;;;;;;;;12.30;99.40;;;;;;5059163;28;19908;-71
2022/10/25 06:24:31;;;;;;;;;;;12.30;99.50;;;;;;5066473;28;19912;-73
2022/10/25 06:26:57;;;;;;;;;;;12.30;99.60;;;;;;5054967;28;19908;-70
2022/10/25 06:29:22;;;;;;;;;;;12.30;99.70;;;;;;5063015;28;20272;-74
2022/10/25 06:31:48;;;;;;;;;;;12.30;99.70;;;;;;5052126;28;19951;-70
2022/10/25 06:34:13;;;;;;;;;;;12.30;99.70;;;;;;5054731;28;19958;-69
2022/10/25 06:36:39;;;;;;;;;;;12.40;99.80;;;;;;5061352;28;20340;-71
2022/10/25 06:39:04;;;;;;;;;;;12.40;99.80;;;;;;5054177;28;19962;-70
2022/10/25 06:41:30;;;;;;;;;;;12.40;99.90;;;;;;5058549;28;19912;-69
2022/10/25 06:43:57;;;;;;;;;;;12.50;99.90;;;;;;5055245;28;19919;-69
2022/10/25 06:46:26;;;;;;;;;;;12.40;99.90;;;;;;5056295;28;20396;-71
2022/10/25 06:48:53;;;;;;;;;;;12.40;99.90;;;;;;5061064;28;20317;-71
2022/10/25 06:51:19;;;;;;;;;;;12.50;99.90;;;;;;5036938;28;19924;-70
2022/10/25 06:53:44;;;;;;;;;;;12.50;99.90;;;;;;5060020;28;20379;-71
2022/10/25 06:56:10;;;;;;;;;;;12.50;99.90;;;;;;5054189;28;20004;-69
2022/10/25 06:58:36;;;;;;;;;;;12.50;99.90;;;;;;5033903;28;20476;-71
2022/10/25 07:01:12;;;;;;;;;;;12.50;99.90;;;;;;5052908;28;20019;-71
2022/10/25 07:03:38;;;;;;;;;;;12.50;99.90;;;;;;5048026;28;19908;-71
2022/10/25 07:06:13;;;;;;;;;;;12.60;99.90;;;;;;5061852;28;19916;-70
2022/10/25 07:08:42;;;;;;;;;;;12.60;99.90;;;;;;5056376;28;20281;-69
2022/10/25 07:11:12;;;;;;;;;;;12.60;99.90;;;;;;5052840;28;19959;-72
2022/10/25 07:13:37;;;;;;;;;;;12.60;99.90;;;;;;5050637;28;19971;-69
2022/10/25 07:16:03;;;;;;;;;;;12.60;99.90;;;;;;5059066;28;19942;-71
2022/10/25 07:18:29;;;;;;;;;;;12.60;99.90;;;;;;5053142;28;19909;-71
2022/10/25 07:20:58;;;;;;;;;;;12.70;99.90;;;;;;5054938;28;19909;-69
2022/10/25 07:23:24;;;;;;;;;;;12.70;99.90;;;;;;5058949;28;20463;-69
2022/10/25 07:25:49;;;;;;;;;;;12.70;99.90;;;;;;5051499;28;20003;-70
2022/10/25 07:28:15;;;;;;;;;;;12.70;99.90;;;;;;5061145;28;19998;-69
2022/10/25 07:30:45;;;;;;;;;;;12.80;99.90;;;;;;5062636;28;20046;-70
2022/10/25 07:33:10;;;;;;;;;;;12.80;99.90;;;;;;5056055;28;19916;-70
2022/10/25 07:35:35;;;;;;;;;;;12.70;99.90;;;;;;5052964;28;19909;-72
2022/10/25 07:38:01;;;;;;;;;;;12.70;99.90;;;;;;5059904;28;19908;-70
2022/10/25 07:40:26;;;;;;;;;;;12.80;99.90;;;;;;5071983;28;20210;-69
2022/10/25 07:42:51;;;;;;;;;;;12.80;99.90;;;;;;5059469;28;20359;-72
2022/10/25 07:45:17;;;;;;;;;;;12.80;99.90;;;;;;5055067;28;20357;-69
2022/10/25 07:47:42;;;;;;;;;;;12.90;99.90;;;;;;5050275;28;19912;-70
2022/10/25 07:50:08;;;;;;;;;;;12.80;99.90;;;;;;5064503;28;19920;-69
2022/10/25 07:52:33;;;;;;;;;;;12.90;99.90;;;;;;5068837;28;19919;-70
2022/10/25 07:54:59;;;;;;;;;;;12.90;99.90;;;;;;5072158;28;19909;-70
2022/10/25 07:57:24;;;;;;;;;;;13.00;99.90;;;;;;5055300;28;20303;-70
2022/10/25 07:59:49;;;;;;;;;;;13.00;99.90;;;;;;5061114;28;19927;-70
2022/10/25 08:02:15;;;;;;;;;;;13.00;99.80;;;;;;5057326;28;19916;-73
2022/10/25 08:04:40;;;;;;;;;;;13.10;99.70;;;;;;5061229;28;19908;-70
2022/10/25 08:07:06;;;;;;;;;;;13.00;99.60;;;;;;5054063;28;19905;-69
2022/10/25 08:09:31;;;;;;;;;;;13.10;99.50;;;;;;5056960;28;19924;-71
2022/10/25 08:11:57;;;;;;;;;;;13.10;99.50;;;;;;5051245;28;19944;-69
2022/10/25 08:14:22;;;;;;;;;;;13.10;99.30;;;;;;5055094;28;19959;-69
2022/10/25 08:16:47;;;;;;;;;;;13.20;99.20;;;;;;5057789;28;19915;-69
2022/10/25 08:19:13;;;;;;;;;;;13.10;99.10;;;;;;5054110;28;19956;-69
2022/10/25 08:21:38;;;;;;;;;;;13.10;99.00;;;;;;5063018;28;20324;-70
2022/10/25 08:24:04;;;;;;;;;;;13.20;99.00;;;;;;5038342;28;20340;-69
2022/10/25 08:26:29;;;;;;;;;;;13.30;98.90;;;;;;5063537;28;20006;-69
2022/10/25 08:28:55;;;;;;;;;;;13.40;98.90;;;;;;5060499;28;20383;-70
2022/10/25 08:31:20;;;;;;;;;;;13.50;98.70;;;;;;5058966;28;19923;-69
2022/10/25 08:33:46;;;;;;;;;;;13.50;98.50;;;;;;5062149;28;19996;-73
2022/10/25 08:36:11;;;;;;;;;;;13.50;98.20;;;;;;5069794;28;19912;-69
2022/10/25 08:38:36;;;;;;;;;;;13.50;98.30;;;;;;5062964;28;19912;-68
2022/10/25 08:41:05;;;;;;;;;;;13.60;98.30;;;;;;5055423;28;20345;-69
2022/10/25 08:43:33;;;;;;;;;;;13.70;98.10;;;;;;5059917;28;19916;-69
2022/10/25 08:46:01;;;;;;;;;;;13.70;98.00;;;;;;5058204;28;20787;-69
2022/10/25 08:48:33;;;;;;;;;;;13.70;98.00;;;;;;5055281;28;19908;-70
2022/10/25 08:51:02;;;;;;;;;;;13.80;97.90;;;;;;5056900;28;20453;-69
2022/10/25 08:53:31;;;;;;;;;;;14.10;98.00;;;;;;5066680;28;20399;-69
2022/10/25 08:55:56;;;;;;;;;;;14.10;97.50;;;;;;5059462;28;20350;-68
2022/10/25 08:58:33;;;;;;;;;;;14.10;96.60;;;;;;5057374;28;20245;-70
2022/10/25 09:01:01;;;;;;;;;;;14.20;96.30;;;;;;5037273;28;20594;-69
2022/10/25 09:03:26;;;;;;;;;;;14.50;96.50;;;;;;5038811;28;20230;-69
2022/10/25 09:06:10;;;;;;;;;;;14.50;96.10;;;;;;5056171;28;19912;-69
2022/10/25 09:08:46;;;;;;;;;;;14.60;95.90;;;;;;5061650;28;19908;-70
2022/10/25 09:11:32;;;;;;;;;;;14.50;95.60;;;;;;5055991;28;20011;-69
2022/10/25 09:14:07;;;;;;;;;;;14.50;95.50;;;;;;5060248;28;19956;-69
2022/10/25 09:16:44;;;;;;;;;;;14.60;95.80;;;;;;5059636;28;20354;-70
2022/10/25 09:19:15;;;;;;;;;;;14.60;95.60;;;;;;5057405;28;19917;-71
2022/10/25 09:21:44;;;;;;;;;;;14.60;95.30;;;;;;5055028;28;19927;-68
2022/10/25 09:24:10;;;;;;;;;;;14.70;94.70;;;;;;5058607;28;19912;-69
2022/10/25 09:26:41;;;;;;;;;;;14.70;94.40;;;;;;5065213;28;19972;-70
2022/10/25 09:29:06;;;;;;;;;;;14.80;94.80;;;;;;5065183;28;19969;-69
2022/10/25 09:31:35;;;;;;;;;;;14.70;94.40;;;;;;5052575;28;20372;-72
2022/10/25 09:34:04;;;;;;;;;;;14.70;94.30;;;;;;5051248;28;20310;-69
2022/10/25 09:36:32;;;;;;;;;;;14.60;94.50;;;;;;5056177;28;19954;-69
2022/10/25 09:39:01;;;;;;;;;;;14.60;94.70;;;;;;5058657;28;19909;-70
2022/10/25 09:41:34;;;;;;;;;;;14.50;94.50;;;;;;5058843;28;19912;-69
2022/10/25 09:44:02;;;;;;;;;;;14.50;94.80;;;;;;5050131;28;20011;-69
2022/10/25 09:46:47;;;;;;;;;;;14.50;94.90;;;;;;5053590;28;19908;-69
2022/10/25 09:49:15;;;;;;;;;;;14.40;94.70;;;;;;5054470;28;20024;-68
2022/10/25 09:51:49;;;;;;;;;;;14.70;95.00;;;;;;5057037;28;19904;-73
2022/10/25 09:54:23;;;;;;;;;;;14.80;94.20;;;;;;5059480;28;19953;-68
2022/10/25 09:56:48;;;;;;;;;;;14.70;93.60;;;;;;5056102;28;20378;-71
2022/10/25 09:59:14;;;;;;;;;;;14.70;93.40;;;;;;5055783;28;19920;-72
2022/10/25 10:01:40;;;;;;;;;;;14.80;93.60;;;;;;5056063;28;20243;-69
2022/10/25 10:04:25;;;;;;;;;;;14.80;93.60;;;;;;5062229;28;19939;-69
2022/10/25 10:06:52;;;;;;;;;;;14.80;93.00;;;;;;5056151;28;19919;-69
2022/10/25 10:09:17;;;;;;;;;;;14.70;92.90;;;;;;5062218;28;19912;-69
2022/10/25 10:11:45;;;;;;;;;;;14.60;93.10;;;;;;5058126;28;20268;-69
2022/10/25 10:14:29;;;;;;;;;;;14.50;93.00;;;;;;5063558;28;19905;-68
2022/10/25 10:16:55;;;;;;;;;;;14.50;93.50;;;;;;5066154;28;19922;-69
2022/10/25 10:19:22;;;;;;;;;;;14.40;93.70;;;;;;5060324;28;19958;-70
2022/10/25 10:21:56;;;;;;;;;;;14.40;94.00;;;;;;5055614;28;19934;-69
2022/10/25 10:24:24;;;;;;;;;;;14.40;93.90;;;;;;5063460;28;19912;-69
2022/10/25 10:26:54;;;;;;;;;;;14.50;93.90;;;;;;5062980;28;19913;-68
2022/10/25 10:29:19;;;;;;;;;;;14.60;94.00;;;;;;5058262;28;19913;-68
2022/10/25 10:31:49;;;;;;;;;;;14.80;93.20;;;;;;5054397;28;19917;-69
2022/10/25 10:34:25;;;;;;;;;;;15.10;92.40;;;;;;5056242;28;19916;-71
2022/10/25 10:37:23;;;;;;;;;;;15.30;91.10;;;;;;5069201;28;19953;-68
2022/10/25 10:39:53;;;;;;;;;;;15.50;91.20;;;;;;4992159;28;20352;-68
2022/10/25 10:42:19;;;;;;;;;;;15.60;90.60;;;;;;5053027;28;19967;-71
2022/10/25 10:45:00;;;;;;;;;;;15.50;90.00;;;;;;5052205;28;19912;-71
2022/10/25 10:47:29;;;;;;;;;;;15.50;89.60;;;;;;5048002;28;20452;-69
2022/10/25 10:49:54;;;;;;;;;;;15.40;89.60;;;;;;5050193;28;22002;-70
2022/10/25 10:52:29;;;;;;;;;;;15.40;89.50;;;;;;5053619;28;19909;-70
2022/10/25 10:54:55;;;;;;;;;;;15.60;89.70;;;;;;5055263;28;20261;-69
2022/10/25 10:57:28;;;;;;;;;;;15.50;88.70;;;;;;5052244;28;20047;-70
2022/10/25 10:59:55;;;;;;;;;;;15.50;89.20;;;;;;5054626;28;19908;-70
2022/10/25 11:02:26;;;;;;;;;;;15.80;89.20;;;;;;5046189;28;19960;-73
2022/10/25 11:04:53;;;;;;;;;;;15.90;88.50;;;;;;5052256;28;19915;-70
2022/10/25 11:07:25;;;;;;;;;;;16.10;87.80;;;;;;5054304;28;19916;-69
2022/10/25 11:09:50;;;;;;;;;;;16.10;87.50;;;;;;5058759;28;19924;-69
2022/10/25 11:12:16;;;;;;;;;;;16.10;87.50;;;;;;5056296;28;19917;-73
2022/10/25 11:14:41;;;;;;;;;;;16.30;86.10;;;;;;5053596;28;20249;-71
2022/10/25 11:17:15;;;;;;;;;;;16.50;86.30;;;;;;5050933;28;22211;-70
2022/10/25 11:19:53;;;;;;;;;;;16.70;84.70;;;;;;5059236;28;20430;-69
2022/10/25 11:22:18;;;;;;;;;;;17.00;84.40;;;;;;5053417;28;19987;-73
2022/10/25 11:24:44;;;;;;;;;;;17.40;84.60;;;;;;5052249;28;20387;-71
2022/10/25 11:27:21;;;;;;;;;;;17.30;83.00;;;;;;5062918;28;20336;-73
2022/10/25 11:29:49;;;;;;;;;;;17.40;82.30;;;;;;5064345;28;20383;-72
2022/10/25 11:32:41;;;;;;;;;;;17.00;82.90;;;;;;5062529;28;20364;-75
2022/10/25 11:35:09;;;;;;;;;;;16.50;83.50;;;;;;5059435;28;19908;-73
2022/10/25 11:37:45;;;;;;;;;;;16.10;85.30;;;;;;5058850;28;19921;-72
2022/10/25 11:40:15;;;;;;;;;;;15.90;85.80;;;;;;5056548;28;19915;-73
2022/10/25 11:43:02;;;;;;;;;;;15.70;86.70;;;;;;5058440;28;19916;-74
2022/10/25 11:45:33;;;;;;;;;;;15.70;86.30;;;;;;5050740;28;19991;-75
2022/10/25 11:48:20;;;;;;;;;;;16.00;84.70;;;;;;5054534;28;19982;-72
2022/10/25 11:51:05;;;;;;;;;;;16.50;82.70;;;;;;5060792;28;19924;-71
2022/10/25 11:53:33;;;;;;;;;;;16.90;82.70;;;;;;5061625;28;19908;-72
2022/10/25 11:56:02;;;;;;;;;;;17.20;81.50;;;;;;5052484;28;20355;-73
2022/10/25 11:58:52;;;;;;;;;;;17.50;79.30;;;;;;5051277;28;19955;-74
2022/10/25 12:01:27;;;;;;;;;;;17.60;79.20;;;;;;5050482;28;19933;-73
2022/10/25 12:03:58;;;;;;;;;;;17.60;78.90;;;;;;5051817;28;20335;-73
2022/10/25 12:06:31;;;;;;;;;;;17.70;78.20;;;;;;5050181;28;19921;-73
2022/10/25 12:09:15;;;;;;;;;;;17.60;79.40;;;;;;5056780;28;19956;-71
2022/10/25 12:11:45;;;;;;;;;;;17.30;79.00;;;;;;5035555;28;19939;-72
2022/10/25 12:14:13;;;;;;;;;;;16.90;78.70;;;;;;5059855;28;20351;-73
2022/10/25 12:16:39;;;;;;;;;;;16.50;78.30;;;;;;5052915;28;19916;-73
2022/10/25 12:19:07;;;;;;;;;;;16.50;79.30;;;;;;5051488;28;19919;-73
2022/10/25 12:21:41;;;;;;;;;;;16.40;79.40;;;;;;5042370;28;20257;-73
2022/10/25 12:24:10;;;;;;;;;;;16.60;79.00;;;;;;5062076;28;19908;-72
2022/10/25 12:26:38;;;;;;;;;;;17.00;78.70;;;;;;5056284;28;19913;-72
2022/10/25 12:29:05;;;;;;;;;;;17.10;79.70;;;;;;5055333;28;19918;-75
2022/10/25 12:31:34;;;;;;;;;;;17.40;78.70;;;;;;5055846;28;19920;-72
2022/10/25 12:34:00;;;;;;;;;;;17.30;79.00;;;;;;5053749;28;19913;-72
2022/10/25 12:36:37;;;;;;;;;;;17.50;78.50;;;;;;5057685;28;19915;-74
2022/10/25 12:39:05;;;;;;;;;;;17.30;78.20;;;;;;5055232;28;19963;-73
2022/10/25 12:41:33;;;;;;;;;;;17.50;77.40;;;;;;5061390;28;19914;-70
2022/10/25 12:44:13;;;;;;;;;;;17.50;77.20;;;;;;5057726;28;19950;-71
2022/10/25 12:46:49;;;;;;;;;;;17.10;77.30;;;;;;5053819;28;20370;-72
2022/10/25 12:49:41;;;;;;;;;;;17.00;79.40;;;;;;5058409;28;19971;-72
2022/10/25 12:52:13;;;;;;;;;;;16.60;80.20;;;;;;5019455;28;20367;-71
2022/10/25 12:54:42;;;;;;;;;;;16.30;81.20;;;;;;5064488;28;19912;-71
2022/10/25 12:57:13;;;;;;;;;;;16.00;81.70;;;;;;5051411;28;19908;-71
2022/10/25 12:59:53;;;;;;;;;;;15.80;82.80;;;;;;5051346;28;20017;-71
2022/10/25 13:02:18;;;;;;;;;;;15.50;83.30;;;;;;5056280;28;19963;-76
2022/10/25 13:04:55;;;;;;;;;;;15.70;83.40;;;;;;5060032;28;19912;-72
2022/10/25 13:07:21;;;;;;;;;;;16.50;81.50;;;;;;5071046;28;19915;-72
2022/10/25 13:09:47;;;;;;;;;;;17.10;79.40;;;;;;5062998;28;19913;-72
2022/10/25 13:12:22;;;;;;;;;;;17.60;78.20;;;;;;5054563;28;19920;-74
2022/10/25 13:14:53;;;;;;;;;;;18.40;77.00;;;;;;5066710;28;19909;-72
2022/10/25 13:17:18;;;;;;;;;;;18.60;76.30;;;;;;5062388;28;19915;-75
2022/10/25 13:20:04;;;;;;;;;;;18.70;74.90;;;;;;5054609;28;19932;-70
2022/10/25 13:22:31;;;;;;;;;;;18.50;75.50;;;;;;5016384;28;19916;-71
2022/10/25 13:24:57;;;;;;;;;;;18.30;74.80;;;;;;5043118;28;19915;-70
2022/10/25 13:27:24;;;;;;;;;;;18.60;74.90;;;;;;5067666;28;19908;-71
2022/10/25 13:30:05;;;;;;;;;;;18.70;73.90;;;;;;5061297;28;19919;-70
2022/10/25 13:32:37;;;;;;;;;;;18.60;74.20;;;;;;5057590;28;19920;-71
2022/10/25 13:35:18;;;;;;;;;;;19.30;73.60;;;;;;5060674;28;19909;-71
2022/10/25 13:37:44;;;;;;;;;;;19.30;71.00;;;;;;5037187;28;19916;-71
2022/10/25 13:40:23;;;;;;;;;;;19.20;70.90;;;;;;5055033;28;19913;-70
2022/10/25 13:42:57;;;;;;;;;;;19.10;71.70;;;;;;5053145;28;20003;-72
2022/10/25 13:45:34;;;;;;;;;;;18.80;72.00;;;;;;5063558;28;19985;-71
2022/10/25 13:48:07;;;;;;;;;;;18.40;73.40;;;;;;5052649;28;19917;-73
2022/10/25 13:50:41;;;;;;;;;;;17.70;75.00;;;;;;5069341;28;19920;-71
2022/10/25 13:53:22;;;;;;;;;;;17.70;75.00;;;;;;5065225;28;20533;-71
2022/10/25 13:56:01;;;;;;;;;;;17.50;76.20;;;;;;5056851;28;19955;-70
2022/10/25 13:58:26;;;;;;;;;;;17.20;77.40;;;;;;5055128;28;19908;-70
2022/10/25 14:00:52;;;;;;;;;;;17.30;77.30;;;;;;5063979;28;19919;-71
2022/10/25 14:03:21;;;;;;;;;;;17.80;77.60;;;;;;5056828;28;19912;-72
2022/10/25 14:05:56;;;;;;;;;;;18.30;75.30;;;;;;5055529;28;20011;-71
2022/10/25 14:08:30;;;;;;;;;;;18.60;74.10;;;;;;5051770;28;20043;-70
2022/10/25 14:11:00;;;;;;;;;;;18.50;73.00;;;;;;5052247;28;19927;-72
2022/10/25 14:13:45;;;;;;;;;;;18.70;73.90;;;;;;5066387;28;19912;-71
2022/10/25 14:16:18;;;;;;;;;;;18.40;73.60;;;;;;5067939;28;19912;-74
2022/10/25 14:18:44;;;;;;;;;;;18.10;73.90;;;;;;5056858;28;20034;-71
2022/10/25 14:21:10;;;;;;;;;;;17.60;74.60;;;;;;5059878;28;19999;-70
2022/10/25 14:23:35;;;;;;;;;;;17.30;76.00;;;;;;5059430;28;19908;-71
2022/10/25 14:26:02;;;;;;;;;;;17.00;77.30;;;;;;5053863;28;20260;-70